Terminal Aerodrome Forecast
Issued by NWS

Current Version | Previous Version | Text Only | Print | Product List | Glossary On
Versions: 1 2 3 4 5 6 7 8 9 10 11 12
000
FTPQ31 PGUM 252323
TAFGUM
TAF

TAF
PKMJ 252323Z 2600/2624 14011KT P6SM VCSH SCT015 SCT050=

USA.gov is the U.S. government's official web portal to all federal, state and local government web resources and services.